Terminal Aerodrome Forecast
Issued by NWS

Home | Current Version | Previous Version | Text Only | Print | Product List | Glossary On
Versions: 1 2 3 4 5 6 7 8 9 10 11 12 13 14 15 16 17 18 19 20 21 22 23 24 25
000
FTUS42 KFFC 260148 AAC
TAFRYY
TAF AMD
KRYY 260148Z 2602/2624 25006KT P6SM VCSH SCT040 BKN080
      TEMPO 2602/2603 VRB12G22KT 6SM -SHRA BKN035
     FM260400 00000KT P6SM SCT100
     FM261600 21006KT P6SM SCT035 PROB30 2619/2623 4SM -TSRA BR
      BKN035CB
      AMD NOT SKED 2604/2612=

USA.gov is the U.S. government's official web portal to all federal, state and local government web resources and services.